sensor_id;sensor_type;location;lat;lon;timestamp;P1;durP1;ratioP1;P2;durP2;ratioP2
62929;SDS011;49036;42.782;23.108;2023-04-03T00:01:14;1.75;;;1.25;;
62929;SDS011;49036;42.782;23.108;2023-04-03T00:03:40;1.90;;;1.30;;
62929;SDS011;49036;42.782;23.108;2023-04-03T00:08:34;1.25;;;1.05;;
62929;SDS011;49036;42.782;23.108;2023-04-03T00:13:25;1.42;;;1.08;;
62929;SDS011;49036;42.782;23.108;2023-04-03T00:15:51;1.05;;;1.02;;
62929;SDS011;49036;42.782;23.108;2023-04-03T00:20:43;1.20;;;1.20;;
62929;SDS011;49036;42.782;23.108;2023-04-03T00:23:08;1.55;;;1.38;;
62929;SDS011;49036;42.782;23.108;2023-04-03T00:25:34;2.17;;;1.25;;
62929;SDS011;49036;42.782;23.108;2023-04-03T00:30:26;1.92;;;1.20;;
62929;SDS011;49036;42.782;23.108;2023-04-03T00:32:52;1.42;;;1.38;;
62929;SDS011;49036;42.782;23.108;2023-04-03T00:35:18;1.08;;;1.08;;
62929;SDS011;49036;42.782;23.108;2023-04-03T00:37:44;0.90;;;0.90;;
62929;SDS011;49036;42.782;23.108;2023-04-03T00:40:11;1.90;;;1.80;;
62929;SDS011;49036;42.782;23.108;2023-04-03T00:42:41;1.25;;;1.17;;
62929;SDS011;49036;42.782;23.108;2023-04-03T00:47:36;1.63;;;1.40;;
62929;SDS011;49036;42.782;23.108;2023-04-03T00:50:04;1.70;;;1.35;;
62929;SDS011;49036;42.782;23.108;2023-04-03T00:52:30;1.65;;;1.55;;
62929;SDS011;49036;42.782;23.108;2023-04-03T00:55:00;1.08;;;1.08;;
62929;SDS011;49036;42.782;23.108;2023-04-03T00:57:29;4.18;;;2.08;;
62929;SDS011;49036;42.782;23.108;2023-04-03T00:59:57;2.95;;;1.80;;
62929;SDS011;49036;42.782;23.108;2023-04-03T01:02:26;1.50;;;1.40;;
62929;SDS011;49036;42.782;23.108;2023-04-03T01:04:52;1.40;;;1.30;;
62929;SDS011;49036;42.782;23.108;2023-04-03T01:07:19;2.08;;;1.90;;
62929;SDS011;49036;42.782;23.108;2023-04-03T01:09:48;1.38;;;1.27;;
62929;SDS011;49036;42.782;23.108;2023-04-03T01:12:31;1.50;;;1.40;;
62929;SDS011;49036;42.782;23.108;2023-04-03T01:15:02;2.25;;;1.20;;
62929;SDS011;49036;42.782;23.108;2023-04-03T01:17:37;1.35;;;1.27;;
62929;SDS011;49036;42.782;23.108;2023-04-03T01:23:24;1.95;;;1.75;;
62929;SDS011;49036;42.782;23.108;2023-04-03T01:28:06;2.95;;;1.60;;
62929;SDS011;49036;42.782;23.108;2023-04-03T01:30:34;2.30;;;1.60;;
62929;SDS011;49036;42.782;23.108;2023-04-03T01:33:04;1.77;;;1.67;;
62929;SDS011;49036;42.782;23.108;2023-04-03T01:35:30;2.08;;;1.60;;
62929;SDS011;49036;42.782;23.108;2023-04-03T01:37:55;2.97;;;2.08;;
62929;SDS011;49036;42.782;23.108;2023-04-03T01:40:21;2.88;;;1.75;;
62929;SDS011;49036;42.782;23.108;2023-04-03T01:42:46;1.80;;;1.48;;
62929;SDS011;49036;42.782;23.108;2023-04-03T01:45:12;3.17;;;1.25;;
62929;SDS011;49036;42.782;23.108;2023-04-03T01:47:37;2.85;;;1.75;;
62929;SDS011;49036;42.782;23.108;2023-04-03T01:50:03;2.47;;;1.77;;
62929;SDS011;49036;42.782;23.108;2023-04-03T01:52:29;3.05;;;1.77;;
62929;SDS011;49036;42.782;23.108;2023-04-03T01:54:55;2.75;;;1.90;;
62929;SDS011;49036;42.782;23.108;2023-04-03T01:57:20;1.65;;;1.55;;
62929;SDS011;49036;42.782;23.108;2023-04-03T01:59:46;2.63;;;1.80;;
62929;SDS011;49036;42.782;23.108;2023-04-03T02:02:11;2.60;;;1.88;;
62929;SDS011;49036;42.782;23.108;2023-04-03T02:04:37;4.28;;;1.85;;
62929;SDS011;49036;42.782;23.108;2023-04-03T02:07:03;2.15;;;1.90;;
62929;SDS011;49036;42.782;23.108;2023-04-03T02:09:28;2.50;;;1.65;;
62929;SDS011;49036;42.782;23.108;2023-04-03T02:11:54;1.70;;;1.60;;
62929;SDS011;49036;42.782;23.108;2023-04-03T02:14:20;2.63;;;2.00;;
62929;SDS011;49036;42.782;23.108;2023-04-03T02:16:46;4.45;;;1.90;;
62929;SDS011;49036;42.782;23.108;2023-04-03T02:19:12;2.78;;;1.52;;
62929;SDS011;49036;42.782;23.108;2023-04-03T02:21:38;2.55;;;1.77;;
62929;SDS011;49036;42.782;23.108;2023-04-03T02:24:03;3.60;;;1.63;;
62929;SDS011;49036;42.782;23.108;2023-04-03T02:26:29;1.50;;;1.38;;
62929;SDS011;49036;42.782;23.108;2023-04-03T02:28:54;2.08;;;1.52;;
62929;SDS011;49036;42.782;23.108;2023-04-03T02:31:20;1.52;;;1.38;;
62929;SDS011;49036;42.782;23.108;2023-04-03T02:33:46;2.15;;;1.95;;
62929;SDS011;49036;42.782;23.108;2023-04-03T02:36:12;2.20;;;1.52;;
62929;SDS011;49036;42.782;23.108;2023-04-03T02:38:38;2.63;;;2.22;;
62929;SDS011;49036;42.782;23.108;2023-04-03T02:41:04;1.50;;;1.30;;
62929;SDS011;49036;42.782;23.108;2023-04-03T02:43:34;2.10;;;1.70;;
62929;SDS011;49036;42.782;23.108;2023-04-03T02:45:59;1.52;;;1.42;;
62929;SDS011;49036;42.782;23.108;2023-04-03T02:48:25;2.33;;;1.58;;
62929;SDS011;49036;42.782;23.108;2023-04-03T02:50:51;1.90;;;1.50;;
62929;SDS011;49036;42.782;23.108;2023-04-03T02:53:17;1.60;;;1.50;;
62929;SDS011;49036;42.782;23.108;2023-04-03T02:55:43;2.70;;;1.42;;
62929;SDS011;49036;42.782;23.108;2023-04-03T03:00:34;2.10;;;1.83;;
62929;SDS011;49036;42.782;23.108;2023-04-03T03:03:00;1.63;;;1.50;;
62929;SDS011;49036;42.782;23.108;2023-04-03T03:05:26;1.98;;;1.60;;
62929;SDS011;49036;42.782;23.108;2023-04-03T03:07:52;2.25;;;1.88;;
62929;SDS011;49036;42.782;23.108;2023-04-03T03:10:18;1.75;;;1.63;;
62929;SDS011;49036;42.782;23.108;2023-04-03T03:12:44;2.13;;;1.85;;
62929;SDS011;49036;42.782;23.108;2023-04-03T03:15:10;2.92;;;1.65;;
62929;SDS011;49036;42.782;23.108;2023-04-03T03:17:35;2.03;;;1.80;;
62929;SDS011;49036;42.782;23.108;2023-04-03T03:20:01;3.40;;;1.95;;
62929;SDS011;49036;42.782;23.108;2023-04-03T03:22:28;1.67;;;1.58;;
62929;SDS011;49036;42.782;23.108;2023-04-03T03:24:54;3.75;;;1.85;;
62929;SDS011;49036;42.782;23.108;2023-04-03T03:27:20;2.35;;;2.15;;
62929;SDS011;49036;42.782;23.108;2023-04-03T03:29:45;1.98;;;1.80;;
62929;SDS011;49036;42.782;23.108;2023-04-03T03:32:11;1.88;;;1.33;;
62929;SDS011;49036;42.782;23.108;2023-04-03T03:34:36;4.07;;;1.50;;
62929;SDS011;49036;42.782;23.108;2023-04-03T03:37:02;3.30;;;1.98;;
62929;SDS011;49036;42.782;23.108;2023-04-03T03:39:27;4.43;;;1.90;;
62929;SDS011;49036;42.782;23.108;2023-04-03T03:41:53;1.95;;;1.65;;
62929;SDS011;49036;42.782;23.108;2023-04-03T03:44:19;2.40;;;1.80;;
62929;SDS011;49036;42.782;23.108;2023-04-03T03:46:45;4.05;;;2.00;;
62929;SDS011;49036;42.782;23.108;2023-04-03T03:49:10;2.10;;;1.60;;
62929;SDS011;49036;42.782;23.108;2023-04-03T03:51:36;1.98;;;1.85;;
62929;SDS011;49036;42.782;23.108;2023-04-03T03:54:03;2.63;;;2.25;;
62929;SDS011;49036;42.782;23.108;2023-04-03T03:56:28;6.63;;;1.90;;
62929;SDS011;49036;42.782;23.108;2023-04-03T03:58:54;8.27;;;2.78;;
62929;SDS011;49036;42.782;23.108;2023-04-03T04:01:21;4.53;;;2.92;;
62929;SDS011;49036;42.782;23.108;2023-04-03T04:03:48;4.82;;;3.05;;
62929;SDS011;49036;42.782;23.108;2023-04-03T04:06:14;5.40;;;2.45;;
62929;SDS011;49036;42.782;23.108;2023-04-03T04:08:40;4.18;;;2.90;;
62929;SDS011;49036;42.782;23.108;2023-04-03T04:11:05;4.35;;;2.70;;
62929;SDS011;49036;42.782;23.108;2023-04-03T04:13:31;5.25;;;3.42;;
62929;SDS011;49036;42.782;23.108;2023-04-03T04:15:56;4.60;;;3.22;;
62929;SDS011;49036;42.782;23.108;2023-04-03T04:18:22;8.65;;;4.93;;
62929;SDS011;49036;42.782;23.108;2023-04-03T04:23:15;11.25;;;3.88;;
62929;SDS011;49036;42.782;23.108;2023-04-03T04:25:44;5.28;;;4.07;;
62929;SDS011;49036;42.782;23.108;2023-04-03T04:28:13;4.40;;;3.47;;
62929;SDS011;49036;42.782;23.108;2023-04-03T04:33:05;5.30;;;3.90;;
62929;SDS011;49036;42.782;23.108;2023-04-03T04:37:57;6.28;;;4.35;;
62929;SDS011;49036;42.782;23.108;2023-04-03T04:40:22;5.32;;;3.97;;
62929;SDS011;49036;42.782;23.108;2023-04-03T04:42:48;5.70;;;4.13;;
62929;SDS011;49036;42.782;23.108;2023-04-03T04:45:14;5.88;;;4.32;;
62929;SDS011;49036;42.782;23.108;2023-04-03T04:47:40;6.82;;;4.18;;
62929;SDS011;49036;42.782;23.108;2023-04-03T04:50:06;7.18;;;4.95;;
62929;SDS011;49036;42.782;23.108;2023-04-03T04:52:31;20.40;;;9.18;;
62929;SDS011;49036;42.782;23.108;2023-04-03T04:54:57;15.73;;;7.25;;
62929;SDS011;49036;42.782;23.108;2023-04-03T04:57:22;17.48;;;7.47;;
62929;SDS011;49036;42.782;23.108;2023-04-03T04:59:48;13.65;;;6.68;;
62929;SDS011;49036;42.782;23.108;2023-04-03T05:02:13;13.85;;;6.07;;
62929;SDS011;49036;42.782;23.108;2023-04-03T05:04:39;10.63;;;5.72;;
62929;SDS011;49036;42.782;23.108;2023-04-03T05:07:05;11.38;;;7.07;;
62929;SDS011;49036;42.782;23.108;2023-04-03T05:09:30;8.23;;;4.85;;
62929;SDS011;49036;42.782;23.108;2023-04-03T05:11:56;9.73;;;5.43;;
62929;SDS011;49036;42.782;23.108;2023-04-03T05:14:21;6.80;;;3.50;;
62929;SDS011;49036;42.782;23.108;2023-04-03T05:16:47;4.70;;;3.50;;
62929;SDS011;49036;42.782;23.108;2023-04-03T05:19:13;8.45;;;4.95;;
62929;SDS011;49036;42.782;23.108;2023-04-03T05:21:38;6.97;;;4.95;;
62929;SDS011;49036;42.782;23.108;2023-04-03T05:24:04;6.00;;;4.03;;
62929;SDS011;49036;42.782;23.108;2023-04-03T05:26:34;5.22;;;4.00;;
62929;SDS011;49036;42.782;23.108;2023-04-03T05:28:59;6.40;;;3.97;;
62929;SDS011;49036;42.782;23.108;2023-04-03T05:31:25;4.32;;;3.55;;
62929;SDS011;49036;42.782;23.108;2023-04-03T05:33:51;5.78;;;3.53;;
62929;SDS011;49036;42.782;23.108;2023-04-03T05:36:16;10.25;;;7.10;;
62929;SDS011;49036;42.782;23.108;2023-04-03T05:38:42;6.18;;;4.32;;
62929;SDS011;49036;42.782;23.108;2023-04-03T05:41:08;3.20;;;2.10;;
62929;SDS011;49036;42.782;23.108;2023-04-03T05:43:33;3.08;;;2.42;;
62929;SDS011;49036;42.782;23.108;2023-04-03T05:45:59;3.45;;;2.78;;
62929;SDS011;49036;42.782;23.108;2023-04-03T05:48:25;2.75;;;2.03;;
62929;SDS011;49036;42.782;23.108;2023-04-03T05:50:51;4.70;;;2.58;;
62929;SDS011;49036;42.782;23.108;2023-04-03T05:55:51;3.63;;;2.20;;
62929;SDS011;49036;42.782;23.108;2023-04-03T05:58:17;1.90;;;1.80;;
62929;SDS011;49036;42.782;23.108;2023-04-03T06:00:42;2.40;;;2.20;;
62929;SDS011;49036;42.782;23.108;2023-04-03T06:03:08;3.20;;;2.28;;
62929;SDS011;49036;42.782;23.108;2023-04-03T06:05:33;2.15;;;1.95;;
62929;SDS011;49036;42.782;23.108;2023-04-03T06:08:00;2.42;;;2.22;;
62929;SDS011;49036;42.782;23.108;2023-04-03T06:10:25;2.20;;;2.00;;
62929;SDS011;49036;42.782;23.108;2023-04-03T06:12:51;3.30;;;2.10;;
62929;SDS011;49036;42.782;23.108;2023-04-03T06:15:16;6.10;;;2.17;;
62929;SDS011;49036;42.782;23.108;2023-04-03T06:17:42;2.70;;;1.98;;
62929;SDS011;49036;42.782;23.108;2023-04-03T06:20:08;3.03;;;1.75;;
62929;SDS011;49036;42.782;23.108;2023-04-03T06:25:00;1.98;;;1.85;;
62929;SDS011;49036;42.782;23.108;2023-04-03T06:27:26;1.73;;;1.63;;
62929;SDS011;49036;42.782;23.108;2023-04-03T06:29:52;6.93;;;2.15;;
62929;SDS011;49036;42.782;23.108;2023-04-03T06:32:17;3.00;;;2.17;;
62929;SDS011;49036;42.782;23.108;2023-04-03T06:34:43;2.22;;;2.03;;
62929;SDS011;49036;42.782;23.108;2023-04-03T06:37:27;2.72;;;2.22;;
62929;SDS011;49036;42.782;23.108;2023-04-03T06:39:54;3.70;;;2.10;;
62929;SDS011;49036;42.782;23.108;2023-04-03T06:42:20;3.53;;;2.17;;
62929;SDS011;49036;42.782;23.108;2023-04-03T06:44:46;2.28;;;1.90;;
62929;SDS011;49036;42.782;23.108;2023-04-03T06:47:15;3.63;;;2.50;;
62929;SDS011;49036;42.782;23.108;2023-04-03T06:49:42;4.70;;;2.22;;
62929;SDS011;49036;42.782;23.108;2023-04-03T06:52:07;6.70;;;2.10;;
62929;SDS011;49036;42.782;23.108;2023-04-03T06:54:33;2.60;;;1.90;;
62929;SDS011;49036;42.782;23.108;2023-04-03T06:56:59;2.58;;;2.30;;
62929;SDS011;49036;42.782;23.108;2023-04-03T06:59:25;2.38;;;1.90;;
62929;SDS011;49036;42.782;23.108;2023-04-03T07:01:51;2.45;;;2.22;;
62929;SDS011;49036;42.782;23.108;2023-04-03T07:04:16;2.22;;;1.95;;
62929;SDS011;49036;42.782;23.108;2023-04-03T07:06:43;2.00;;;1.70;;
62929;SDS011;49036;42.782;23.108;2023-04-03T07:09:09;3.42;;;2.40;;
62929;SDS011;49036;42.782;23.108;2023-04-03T07:11:35;5.22;;;2.50;;
62929;SDS011;49036;42.782;23.108;2023-04-03T07:14:01;11.57;;;2.38;;
62929;SDS011;49036;42.782;23.108;2023-04-03T07:16:28;20.20;;;4.63;;
62929;SDS011;49036;42.782;23.108;2023-04-03T07:18:55;4.80;;;1.90;;
62929;SDS011;49036;42.782;23.108;2023-04-03T07:21:22;6.25;;;2.05;;
62929;SDS011;49036;42.782;23.108;2023-04-03T07:23:47;2.13;;;1.95;;
62929;SDS011;49036;42.782;23.108;2023-04-03T07:28:38;2.47;;;2.03;;
62929;SDS011;49036;42.782;23.108;2023-04-03T07:31:06;2.72;;;2.20;;
62929;SDS011;49036;42.782;23.108;2023-04-03T07:33:37;2.08;;;1.83;;
62929;SDS011;49036;42.782;23.108;2023-04-03T07:36:03;2.40;;;2.20;;
62929;SDS011;49036;42.782;23.108;2023-04-03T07:38:32;3.10;;;1.95;;
62929;SDS011;49036;42.782;23.108;2023-04-03T07:40:58;3.50;;;2.55;;
62929;SDS011;49036;42.782;23.108;2023-04-03T07:45:52;2.30;;;1.65;;
62929;SDS011;49036;42.782;23.108;2023-04-03T07:48:19;3.20;;;2.10;;
62929;SDS011;49036;42.782;23.108;2023-04-03T07:50:49;5.75;;;2.28;;
62929;SDS011;49036;42.782;23.108;2023-04-03T07:55:40;4.57;;;1.92;;
62929;SDS011;49036;42.782;23.108;2023-04-03T07:58:09;3.45;;;2.03;;
62929;SDS011;49036;42.782;23.108;2023-04-03T08:00:36;2.95;;;1.88;;
62929;SDS011;49036;42.782;23.108;2023-04-03T08:05:27;4.03;;;1.92;;
62929;SDS011;49036;42.782;23.108;2023-04-03T08:10:18;1.75;;;1.63;;
62929;SDS011;49036;42.782;23.108;2023-04-03T08:12:45;10.32;;;2.70;;
62929;SDS011;49036;42.782;23.108;2023-04-03T08:15:11;2.92;;;1.58;;
62929;SDS011;49036;42.782;23.108;2023-04-03T08:20:04;4.75;;;2.20;;
62929;SDS011;49036;42.782;23.108;2023-04-03T08:22:32;2.33;;;2.13;;
62929;SDS011;49036;42.782;23.108;2023-04-03T08:24:58;2.78;;;1.88;;
62929;SDS011;49036;42.782;23.108;2023-04-03T08:27:24;5.20;;;2.30;;
62929;SDS011;49036;42.782;23.108;2023-04-03T08:32:15;3.17;;;2.47;;
62929;SDS011;49036;42.782;23.108;2023-04-03T08:37:06;2.83;;;1.88;;
62929;SDS011;49036;42.782;23.108;2023-04-03T08:39:32;2.92;;;1.90;;
62929;SDS011;49036;42.782;23.108;2023-04-03T08:41:57;3.75;;;1.75;;
62929;SDS011;49036;42.782;23.108;2023-04-03T08:47:47;4.90;;;2.08;;
62929;SDS011;49036;42.782;23.108;2023-04-03T08:50:14;3.70;;;1.90;;
62929;SDS011;49036;42.782;23.108;2023-04-03T08:52:45;5.70;;;2.10;;
62929;SDS011;49036;42.782;23.108;2023-04-03T08:55:31;5.22;;;2.90;;
62929;SDS011;49036;42.782;23.108;2023-04-03T09:00:26;2.85;;;1.90;;
62929;SDS011;49036;42.782;23.108;2023-04-03T09:02:57;3.30;;;2.00;;
62929;SDS011;49036;42.782;23.108;2023-04-03T09:05:29;2.28;;;1.95;;
62929;SDS011;49036;42.782;23.108;2023-04-03T09:08:06;3.08;;;1.67;;
62929;SDS011;49036;42.782;23.108;2023-04-03T09:10:39;3.00;;;2.35;;
62929;SDS011;49036;42.782;23.108;2023-04-03T09:13:08;2.95;;;1.70;;
62929;SDS011;49036;42.782;23.108;2023-04-03T09:15:56;3.30;;;1.67;;
62929;SDS011;49036;42.782;23.108;2023-04-03T09:18:30;2.33;;;2.13;;
62929;SDS011;49036;42.782;23.108;2023-04-03T09:26:02;2.78;;;2.30;;
62929;SDS011;49036;42.782;23.108;2023-04-03T09:28:35;2.67;;;2.00;;
62929;SDS011;49036;42.782;23.108;2023-04-03T09:31:14;8.13;;;3.47;;
62929;SDS011;49036;42.782;23.108;2023-04-03T09:36:42;3.05;;;2.33;;
62929;SDS011;49036;42.782;23.108;2023-04-03T09:39:14;2.78;;;2.05;;
62929;SDS011;49036;42.782;23.108;2023-04-03T09:42:04;2.80;;;2.40;;
62929;SDS011;49036;42.782;23.108;2023-04-03T09:44:57;6.88;;;2.42;;
62929;SDS011;49036;42.782;23.108;2023-04-03T09:47:32;3.05;;;2.20;;
62929;SDS011;49036;42.782;23.108;2023-04-03T09:52:40;3.75;;;2.72;;
62929;SDS011;49036;42.782;23.108;2023-04-03T09:55:08;4.85;;;3.10;;
62929;SDS011;49036;42.782;23.108;2023-04-03T09:57:39;3.42;;;2.25;;
62929;SDS011;49036;42.782;23.108;2023-04-03T10:00:06;3.83;;;2.53;;
62929;SDS011;49036;42.782;23.108;2023-04-03T10:02:46;5.93;;;3.30;;
62929;SDS011;49036;42.782;23.108;2023-04-03T10:05:35;4.18;;;2.88;;
62929;SDS011;49036;42.782;23.108;2023-04-03T10:10:40;5.93;;;2.97;;
62929;SDS011;49036;42.782;23.108;2023-04-03T10:13:08;15.25;;;8.38;;
62929;SDS011;49036;42.782;23.108;2023-04-03T10:15:41;15.07;;;5.57;;
62929;SDS011;49036;42.782;23.108;2023-04-03T10:20:48;24.60;;;11.98;;
62929;SDS011;49036;42.782;23.108;2023-04-03T10:28:56;7.18;;;3.47;;
62929;SDS011;49036;42.782;23.108;2023-04-03T10:32:03;4.03;;;2.85;;
62929;SDS011;49036;42.782;23.108;2023-04-03T10:34:44;4.68;;;3.20;;
62929;SDS011;49036;42.782;23.108;2023-04-03T10:39:45;5.93;;;4.82;;
62929;SDS011;49036;42.782;23.108;2023-04-03T10:42:35;4.70;;;3.42;;
62929;SDS011;49036;42.782;23.108;2023-04-03T10:53:03;13.68;;;6.80;;
62929;SDS011;49036;42.782;23.108;2023-04-03T10:58:44;7.97;;;3.55;;
62929;SDS011;49036;42.782;23.108;2023-04-03T11:01:16;7.10;;;4.43;;
62929;SDS011;49036;42.782;23.108;2023-04-03T11:03:49;7.30;;;4.43;;
62929;SDS011;49036;42.782;23.108;2023-04-03T11:06:18;7.00;;;4.57;;
62929;SDS011;49036;42.782;23.108;2023-04-03T11:11:31;11.20;;;4.07;;
62929;SDS011;49036;42.782;23.108;2023-04-03T11:14:05;7.45;;;3.72;;
62929;SDS011;49036;42.782;23.108;2023-04-03T11:16:42;5.82;;;3.25;;
62929;SDS011;49036;42.782;23.108;2023-04-03T11:19:14;3.72;;;2.70;;
62929;SDS011;49036;42.782;23.108;2023-04-03T11:24:39;5.72;;;3.35;;
62929;SDS011;49036;42.782;23.108;2023-04-03T11:27:11;6.07;;;3.30;;
62929;SDS011;49036;42.782;23.108;2023-04-03T11:29:43;5.65;;;3.78;;
62929;SDS011;49036;42.782;23.108;2023-04-03T11:32:34;11.40;;;4.30;;
62929;SDS011;49036;42.782;23.108;2023-04-03T11:35:30;9.48;;;5.10;;
62929;SDS011;49036;42.782;23.108;2023-04-03T11:37:57;7.88;;;4.25;;
62929;SDS011;49036;42.782;23.108;2023-04-03T11:40:26;5.45;;;3.53;;
62929;SDS011;49036;42.782;23.108;2023-04-03T11:47:53;4.20;;;2.83;;
62929;SDS011;49036;42.782;23.108;2023-04-03T12:03:55;4.25;;;3.35;;
62929;SDS011;49036;42.782;23.108;2023-04-03T12:10:14;7.63;;;3.55;;
62929;SDS011;49036;42.782;23.108;2023-04-03T12:15:24;3.88;;;2.75;;
62929;SDS011;49036;42.782;23.108;2023-04-03T12:17:52;4.80;;;2.03;;
62929;SDS011;49036;42.782;23.108;2023-04-03T12:20:45;3.53;;;2.75;;
62929;SDS011;49036;42.782;23.108;2023-04-03T12:25:59;5.80;;;3.20;;
62929;SDS011;49036;42.782;23.108;2023-04-03T12:28:44;5.95;;;4.00;;
62929;SDS011;49036;42.782;23.108;2023-04-03T12:31:11;7.75;;;3.88;;
62929;SDS011;49036;42.782;23.108;2023-04-03T12:36:33;3.53;;;2.75;;
62929;SDS011;49036;42.782;23.108;2023-04-03T12:39:26;9.98;;;5.70;;
62929;SDS011;49036;42.782;23.108;2023-04-03T12:45:02;5.82;;;5.00;;
62929;SDS011;49036;42.782;23.108;2023-04-03T12:47:34;8.43;;;5.10;;
62929;SDS011;49036;42.782;23.108;2023-04-03T12:50:03;15.35;;;7.78;;
62929;SDS011;49036;42.782;23.108;2023-04-03T12:55:14;6.10;;;4.18;;
62929;SDS011;49036;42.782;23.108;2023-04-03T12:57:41;7.30;;;3.72;;
62929;SDS011;49036;42.782;23.108;2023-04-03T13:03:19;13.05;;;6.78;;
62929;SDS011;49036;42.782;23.108;2023-04-03T13:05:49;7.32;;;5.20;;
62929;SDS011;49036;42.782;23.108;2023-04-03T13:13:28;7.25;;;4.68;;
62929;SDS011;49036;42.782;23.108;2023-04-03T13:18:30;13.98;;;7.45;;
62929;SDS011;49036;42.782;23.108;2023-04-03T13:21:08;9.73;;;5.78;;
62929;SDS011;49036;42.782;23.108;2023-04-03T13:23:40;11.45;;;7.03;;
62929;SDS011;49036;42.782;23.108;2023-04-03T13:26:09;11.23;;;7.28;;
62929;SDS011;49036;42.782;23.108;2023-04-03T13:28:36;12.50;;;7.30;;
62929;SDS011;49036;42.782;23.108;2023-04-03T13:31:09;9.93;;;5.82;;
62929;SDS011;49036;42.782;23.108;2023-04-03T13:41:43;9.45;;;5.47;;
62929;SDS011;49036;42.782;23.108;2023-04-03T13:44:36;5.50;;;4.10;;
62929;SDS011;49036;42.782;23.108;2023-04-03T13:52:28;9.75;;;5.70;;
62929;SDS011;49036;42.782;23.108;2023-04-03T13:54:57;6.82;;;4.10;;
62929;SDS011;49036;42.782;23.108;2023-04-03T13:57:25;7.35;;;3.67;;
62929;SDS011;49036;42.782;23.108;2023-04-03T13:59:51;8.45;;;3.65;;
62929;SDS011;49036;42.782;23.108;2023-04-03T14:02:18;7.40;;;2.97;;
62929;SDS011;49036;42.782;23.108;2023-04-03T14:04:49;5.45;;;2.75;;
62929;SDS011;49036;42.782;23.108;2023-04-03T14:07:21;4.97;;;3.42;;
62929;SDS011;49036;42.782;23.108;2023-04-03T14:09:47;5.35;;;3.97;;
62929;SDS011;49036;42.782;23.108;2023-04-03T14:14:54;9.23;;;5.13;;
62929;SDS011;49036;42.782;23.108;2023-04-03T14:17:22;8.73;;;4.75;;
62929;SDS011;49036;42.782;23.108;2023-04-03T14:19:51;7.20;;;4.47;;
62929;SDS011;49036;42.782;23.108;2023-04-03T14:22:22;6.57;;;5.40;;
62929;SDS011;49036;42.782;23.108;2023-04-03T14:24:51;10.38;;;5.25;;
62929;SDS011;49036;42.782;23.108;2023-04-03T14:27:21;7.35;;;5.30;;
62929;SDS011;49036;42.782;23.108;2023-04-03T14:29:50;9.48;;;6.18;;
62929;SDS011;49036;42.782;23.108;2023-04-03T14:32:17;5.03;;;4.28;;
62929;SDS011;49036;42.782;23.108;2023-04-03T14:34:44;5.13;;;4.25;;
62929;SDS011;49036;42.782;23.108;2023-04-03T14:37:18;6.57;;;4.80;;
62929;SDS011;49036;42.782;23.108;2023-04-03T14:39:48;7.38;;;5.53;;
62929;SDS011;49036;42.782;23.108;2023-04-03T14:42:15;9.05;;;5.55;;
62929;SDS011;49036;42.782;23.108;2023-04-03T14:44:42;9.40;;;6.28;;
62929;SDS011;49036;42.782;23.108;2023-04-03T14:47:10;8.10;;;5.80;;
62929;SDS011;49036;42.782;23.108;2023-04-03T14:49:37;10.52;;;7.93;;
62929;SDS011;49036;42.782;23.108;2023-04-03T14:52:04;10.10;;;7.00;;
62929;SDS011;49036;42.782;23.108;2023-04-03T14:54:29;10.55;;;7.18;;
62929;SDS011;49036;42.782;23.108;2023-04-03T14:56:56;13.45;;;8.05;;
62929;SDS011;49036;42.782;23.108;2023-04-03T14:59:24;11.93;;;7.90;;
62929;SDS011;49036;42.782;23.108;2023-04-03T15:01:50;15.07;;;8.93;;
62929;SDS011;49036;42.782;23.108;2023-04-03T15:04:19;14.35;;;7.07;;
62929;SDS011;49036;42.782;23.108;2023-04-03T15:06:46;10.45;;;6.32;;
62929;SDS011;49036;42.782;23.108;2023-04-03T15:09:23;9.38;;;6.57;;
62929;SDS011;49036;42.782;23.108;2023-04-03T15:11:50;12.25;;;7.03;;
62929;SDS011;49036;42.782;23.108;2023-04-03T15:14:17;12.77;;;8.43;;
62929;SDS011;49036;42.782;23.108;2023-04-03T15:16:43;14.30;;;8.00;;
62929;SDS011;49036;42.782;23.108;2023-04-03T15:19:08;13.70;;;8.25;;
62929;SDS011;49036;42.782;23.108;2023-04-03T15:21:34;17.08;;;8.80;;
62929;SDS011;49036;42.782;23.108;2023-04-03T15:24:01;18.25;;;10.52;;
62929;SDS011;49036;42.782;23.108;2023-04-03T15:26:26;19.02;;;10.07;;
62929;SDS011;49036;42.782;23.108;2023-04-03T15:28:52;20.33;;;10.52;;
62929;SDS011;49036;42.782;23.108;2023-04-03T15:31:17;14.63;;;10.25;;
62929;SDS011;49036;42.782;23.108;2023-04-03T15:33:43;21.60;;;11.40;;
62929;SDS011;49036;42.782;23.108;2023-04-03T15:36:09;16.67;;;10.57;;
62929;SDS011;49036;42.782;23.108;2023-04-03T15:38:34;20.63;;;11.20;;
62929;SDS011;49036;42.782;23.108;2023-04-03T15:41:00;17.67;;;10.82;;
62929;SDS011;49036;42.782;23.108;2023-04-03T15:43:26;16.20;;;9.60;;
62929;SDS011;49036;42.782;23.108;2023-04-03T15:45:51;16.40;;;9.77;;
62929;SDS011;49036;42.782;23.108;2023-04-03T15:48:17;12.20;;;8.18;;
62929;SDS011;49036;42.782;23.108;2023-04-03T15:53:09;11.63;;;7.47;;
62929;SDS011;49036;42.782;23.108;2023-04-03T15:55:35;15.05;;;7.82;;
62929;SDS011;49036;42.782;23.108;2023-04-03T15:58:02;9.63;;;6.90;;
62929;SDS011;49036;42.782;23.108;2023-04-03T16:00:28;16.83;;;9.10;;
62929;SDS011;49036;42.782;23.108;2023-04-03T16:02:58;16.88;;;10.57;;
62929;SDS011;49036;42.782;23.108;2023-04-03T16:05:29;17.00;;;10.20;;
62929;SDS011;49036;42.782;23.108;2023-04-03T16:07:55;16.38;;;10.30;;
62929;SDS011;49036;42.782;23.108;2023-04-03T16:10:22;16.83;;;11.57;;
62929;SDS011;49036;42.782;23.108;2023-04-03T16:12:48;16.83;;;10.63;;
62929;SDS011;49036;42.782;23.108;2023-04-03T16:15:14;17.45;;;10.93;;
62929;SDS011;49036;42.782;23.108;2023-04-03T16:17:39;15.45;;;10.65;;
62929;SDS011;49036;42.782;23.108;2023-04-03T16:20:07;17.95;;;10.57;;
62929;SDS011;49036;42.782;23.108;2023-04-03T16:22:33;15.18;;;8.95;;
62929;SDS011;49036;42.782;23.108;2023-04-03T16:24:59;17.95;;;10.52;;
62929;SDS011;49036;42.782;23.108;2023-04-03T16:27:25;16.05;;;10.63;;
62929;SDS011;49036;42.782;23.108;2023-04-03T16:29:53;25.58;;;13.15;;
62929;SDS011;49036;42.782;23.108;2023-04-03T16:32:20;14.77;;;9.68;;
62929;SDS011;49036;42.782;23.108;2023-04-03T16:34:46;14.43;;;8.98;;
62929;SDS011;49036;42.782;23.108;2023-04-03T16:39:38;9.43;;;6.05;;
62929;SDS011;49036;42.782;23.108;2023-04-03T16:42:03;12.85;;;6.85;;
62929;SDS011;49036;42.782;23.108;2023-04-03T16:44:29;10.65;;;7.00;;
62929;SDS011;49036;42.782;23.108;2023-04-03T16:46:55;13.50;;;7.05;;
62929;SDS011;49036;42.782;23.108;2023-04-03T16:49:20;8.57;;;5.72;;
62929;SDS011;49036;42.782;23.108;2023-04-03T16:51:47;11.57;;;7.32;;
62929;SDS011;49036;42.782;23.108;2023-04-03T16:54:13;10.95;;;6.75;;
62929;SDS011;49036;42.782;23.108;2023-04-03T16:56:39;11.93;;;6.43;;
62929;SDS011;49036;42.782;23.108;2023-04-03T16:59:05;13.52;;;8.05;;
62929;SDS011;49036;42.782;23.108;2023-04-03T17:01:31;13.15;;;7.55;;
62929;SDS011;49036;42.782;23.108;2023-04-03T17:03:56;13.82;;;7.93;;
62929;SDS011;49036;42.782;23.108;2023-04-03T17:06:22;16.50;;;7.72;;
62929;SDS011;49036;42.782;23.108;2023-04-03T17:08:50;9.77;;;6.43;;
62929;SDS011;49036;42.782;23.108;2023-04-03T17:11:17;8.98;;;6.65;;
62929;SDS011;49036;42.782;23.108;2023-04-03T17:13:43;9.40;;;6.35;;
62929;SDS011;49036;42.782;23.108;2023-04-03T17:16:10;8.27;;;6.00;;
62929;SDS011;49036;42.782;23.108;2023-04-03T17:18:38;10.73;;;6.90;;
62929;SDS011;49036;42.782;23.108;2023-04-03T17:21:05;11.82;;;6.60;;
62929;SDS011;49036;42.782;23.108;2023-04-03T17:23:31;20.38;;;11.57;;